Time;durP1;ratioP1;P1;durP2;ratioP2;P2;SDS_P1;SDS_P2;PMS_P1;PMS_P2;Temp;Humidity;BMP_temperature;BMP_pressure;BME280_temperature;BME280_humidity;BME280_pressure;Samples;Min_cycle;Max_cycle;Signal;HPM_P1;HPM_P2
2023/01/14 02:19:39;;;;;;;9.63;2.70;;;12.60;99.90;;;;;;4588506;19;20006;-29
2023/01/14 02:21:18;;;;;;;5.87;2.63;;;12.60;99.90;;;;;;4589511;19;20022;-31
2023/01/14 02:22:58;;;;;;;6.30;2.50;;;12.60;99.90;;;;;;4590169;19;20109;-28
2023/01/14 02:24:38;;;;;;;6.87;2.60;;;12.60;99.90;;;;;;4589357;19;20014;-30
2023/01/14 02:34:21;;;;;;;5.67;2.43;;;12.50;99.90;;;;;;4588864;19;20001;-30
2023/01/14 02:36:24;;;;;;;3.97;2.20;;;12.50;99.90;;;;;;4588139;19;20014;-32
2023/01/14 02:38:07;;;;;;;5.87;2.00;;;12.50;99.90;;;;;;4589478;19;20491;-30
2023/01/14 02:39:40;;;;;;;5.20;2.00;;;12.40;99.90;;;;;;4588203;19;20357;-31
2023/01/14 02:44:07;;;;;;;7.33;1.90;;;12.50;99.90;;;;;;4593085;19;19979;-31
2023/01/14 02:45:50;;;;;;;5.07;2.00;;;12.50;99.90;;;;;;4592556;19;20014;-30
2023/01/14 02:47:25;;;;;;;4.83;2.33;;;12.50;99.90;;;;;;4591622;19;20018;-30
2023/01/14 02:48:57;;;;;;;5.13;2.00;;;12.50;99.90;;;;;;4592406;19;20480;-29
2023/01/14 02:50:31;;;;;;;5.07;2.10;;;12.50;99.90;;;;;;4592333;19;20019;-29
2023/01/14 02:52:06;;;;;;;4.67;2.07;;;12.50;99.90;;;;;;4593161;19;20082;-30
2023/01/14 02:53:38;;;;;;;7.30;2.97;;;12.50;99.90;;;;;;4592310;19;20025;-29
2023/01/14 02:55:32;;;;;;;5.15;2.47;;;12.50;99.90;;;;;;4593723;19;19998;-30
2023/01/14 02:57:14;;;;;;;4.50;2.07;;;12.40;99.90;;;;;;4593796;19;20015;-30
2023/01/14 02:58:54;;;;;;;5.57;2.10;;;12.50;99.90;;;;;;4592281;19;20010;-29
2023/01/14 03:00:30;;;;;;;8.70;2.73;;;12.50;99.90;;;;;;4592096;19;20015;-29
2023/01/14 03:02:26;;;;;;;6.77;2.40;;;12.50;99.90;;;;;;4592227;19;20006;-30
2023/01/14 03:04:21;;;;;;;5.93;2.40;;;12.50;99.90;;;;;;4593232;19;20013;-30
2023/01/14 03:06:20;;;;;;;4.83;2.20;;;12.50;99.90;;;;;;4593698;19;20014;-31
2023/01/14 03:08:04;;;;;;;4.87;2.13;;;12.50;99.90;;;;;;4591801;19;20014;-30
2023/01/14 03:10:07;;;;;;;6.60;2.47;;;12.40;99.90;;;;;;4593611;19;19995;-28
2023/01/14 03:11:59;;;;;;;4.90;2.00;;;12.40;99.90;;;;;;4592677;19;20382;-29
2023/01/14 03:13:45;;;;;;;5.00;1.85;;;12.50;99.90;;;;;;4592154;19;20014;-30
2023/01/14 03:15:34;;;;;;;5.10;2.00;;;12.50;99.90;;;;;;4593012;19;20011;-29
2023/01/14 03:17:32;;;;;;;4.90;2.03;;;12.50;99.90;;;;;;4591856;19;20048;-31
2023/01/14 03:19:07;;;;;;;7.67;2.40;;;12.50;99.90;;;;;;4590101;19;20015;-29
2023/01/14 03:20:42;;;;;;;5.50;2.37;;;12.50;99.90;;;;;;4590892;19;20028;-30
2023/01/14 03:22:15;;;;;;;4.77;2.27;;;12.50;99.90;;;;;;4590816;19;20014;-28
2023/01/14 03:23:52;;;;;;;6.40;2.30;;;12.50;99.90;;;;;;4590641;19;20014;-30
2023/01/14 03:25:25;;;;;;;5.57;1.83;;;12.40;99.90;;;;;;4591058;19;20014;-29
2023/01/14 03:27:00;;;;;;;4.13;1.60;;;12.50;99.90;;;;;;4590698;19;20010;-29
2023/01/14 03:28:36;;;;;;;4.83;2.40;;;12.40;99.90;;;;;;4590389;19;20515;-29
2023/01/14 03:30:10;;;;;;;6.03;2.13;;;12.40;99.90;;;;;;4590391;19;20469;-30
2023/01/14 03:31:46;;;;;;;6.57;2.43;;;12.50;99.90;;;;;;4590379;19;20010;-29
2023/01/14 03:33:21;;;;;;;7.03;2.40;;;12.50;99.90;;;;;;4590680;19;20034;-31
2023/01/14 03:35:16;;;;;;;6.90;2.37;;;12.50;99.90;;;;;;4591407;19;20011;-30
2023/01/14 03:36:49;;;;;;;8.17;2.43;;;12.50;99.90;;;;;;4590781;19;20006;-29
2023/01/14 03:38:30;;;;;;;;;;;12.50;99.90;;;;;;4591241;19;20011;-30
2023/01/14 03:40:04;;;;;;;6.82;1.83;;;12.40;99.90;;;;;;4590715;19;19918;-29
2023/01/14 03:43:32;;;;;;;5.10;1.83;;;12.40;99.90;;;;;;4590465;19;20061;-29
2023/01/14 03:45:17;;;;;;;5.77;2.10;;;12.40;99.90;;;;;;4590724;19;20021;-30
2023/01/14 03:46:49;;;;;;;3.83;1.53;;;12.40;99.90;;;;;;4590087;19;20014;-31
2023/01/14 03:48:20;;;;;;;;;;;12.40;99.90;;;;;;4591014;19;20558;-31
2023/01/14 03:49:55;;;;;;;5.57;1.67;;;12.40;99.90;;;;;;4590436;19;19928;-31
2023/01/14 03:51:32;;;;;;;3.15;1.60;;;12.40;99.90;;;;;;4589836;19;20615;-31
2023/01/14 03:53:12;;;;;;;4.23;1.53;;;12.40;99.90;;;;;;4590015;19;20013;-30
2023/01/14 03:55:20;;;;;;;4.30;1.50;;;12.40;99.90;;;;;;4590245;19;20491;-28
2023/01/14 03:57:30;;;;;;;3.60;1.50;;;12.40;99.90;;;;;;4591589;19;20015;-29
2023/01/14 04:03:00;;;;;;;5.70;1.83;;;12.40;99.90;;;;;;4590002;19;20006;-30
2023/01/14 04:04:38;;;;;;;4.67;1.67;;;12.40;99.90;;;;;;4589560;19;20054;-31
2023/01/14 04:06:12;;;;;;;5.00;1.97;;;12.40;99.90;;;;;;4589871;19;20471;-30
2023/01/14 04:07:45;;;;;;;5.65;1.88;;;12.40;99.90;;;;;;4589080;19;20055;-33
2023/01/14 04:09:18;;;;;;;5.50;2.40;;;12.40;99.90;;;;;;4589372;19;20021;-30
2023/01/14 04:10:50;;;;;;;7.03;2.13;;;12.40;99.90;;;;;;4589981;19;20018;-28
2023/01/14 04:12:23;;;;;;;3.90;1.63;;;12.40;99.90;;;;;;4589689;19;20035;-29
2023/01/14 04:15:47;;;;;;;4.80;1.70;;;12.40;99.90;;;;;;4589822;19;20094;-32
2023/01/14 04:17:18;;;;;;;5.10;1.70;;;12.40;99.90;;;;;;4589473;19;20010;-30
2023/01/14 04:18:49;;;;;;;4.75;1.75;;;12.40;99.90;;;;;;4589199;19;20346;-31
2023/01/14 04:20:21;;;;;;;;;;;12.40;99.90;;;;;;4591260;19;20006;-29
2023/01/14 04:21:52;;;;;;;5.03;1.93;;;12.40;99.90;;;;;;4589470;19;20306;-29
2023/01/14 04:23:25;;;;;;;5.87;2.07;;;12.40;99.90;;;;;;4589421;19;20015;-29
2023/01/14 04:24:59;;;;;;;5.37;2.00;;;12.50;99.90;;;;;;4589973;19;20006;-29
2023/01/14 04:26:38;;;;;;;5.67;2.33;;;12.50;99.90;;;;;;4589561;19;20082;-29
2023/01/14 04:28:11;;;;;;;6.90;2.27;;;12.40;99.90;;;;;;4588267;19;20059;-28
2023/01/14 04:29:42;;;;;;;6.88;2.25;;;12.40;99.90;;;;;;4589594;19;20524;-28
2023/01/14 04:31:15;;;;;;;6.87;2.63;;;12.40;99.90;;;;;;4589552;19;20002;-29
2023/01/14 04:32:46;;;;;;;7.35;2.28;;;12.40;99.90;;;;;;4589552;19;20369;-29
2023/01/14 04:34:19;;;;;;;6.17;2.67;;;12.40;99.90;;;;;;4589408;19;20013;-30
2023/01/14 04:35:51;;;;;;;;;;;12.40;99.90;;;;;;4590842;19;20020;-28
2023/01/14 04:37:22;;;;;;;6.07;2.23;;;12.40;99.90;;;;;;4591656;19;19931;-28
2023/01/14 04:38:53;;;;;;;;;;;12.40;99.90;;;;;;4592092;19;20031;-30
2023/01/14 04:40:24;;;;;;;7.90;2.50;;;12.40;99.90;;;;;;4591604;19;19915;-29
2023/01/14 04:43:46;;;;;;;7.10;1.90;;;12.40;99.90;;;;;;4591330;19;20011;-29
2023/01/14 04:45:19;;;;;;;4.87;1.73;;;12.40;99.90;;;;;;4591939;19;20011;-32
2023/01/14 04:46:51;;;;;;;5.93;1.63;;;12.40;99.90;;;;;;4591040;19;20014;-29
2023/01/14 04:48:23;;;;;;;4.75;1.80;;;12.40;99.90;;;;;;4590423;19;20058;-29
2023/01/14 04:49:55;;;;;;;5.97;2.00;;;12.40;99.90;;;;;;4591588;19;20073;-30
2023/01/14 04:51:26;;;;;;;6.90;2.00;;;12.40;99.90;;;;;;4592157;19;20460;-29
2023/01/14 04:53:04;;;;;;;6.07;2.10;;;12.40;99.90;;;;;;4591379;19;20018;-31
2023/01/14 04:54:39;;;;;;;6.13;2.20;;;12.40;99.90;;;;;;4590508;19;20022;-28
2023/01/14 04:56:13;;;;;;;4.33;1.90;;;12.40;99.90;;;;;;4590671;19;20006;-31
2023/01/14 04:57:56;;;;;;;4.60;1.97;;;12.40;99.90;;;;;;4591321;19;20014;-29
2023/01/14 04:59:41;;;;;;;5.77;1.83;;;12.40;99.90;;;;;;4590994;19;20014;-30
2023/01/14 05:01:12;;;;;;;5.70;2.08;;;12.40;99.90;;;;;;4591016;19;20095;-30
2023/01/14 05:02:50;;;;;;;8.70;2.30;;;12.40;99.90;;;;;;4589841;19;20041;-30
2023/01/14 05:04:21;;;;;;;4.93;2.00;;;12.40;99.90;;;;;;4589055;19;20014;-29
2023/01/14 05:05:59;;;;;;;3.70;1.80;;;12.40;99.90;;;;;;4590917;19;20017;-29
2023/01/14 05:07:48;;;;;;;5.67;2.37;;;12.40;99.90;;;;;;4589502;19;20023;-29
2023/01/14 05:09:32;;;;;;;4.53;1.80;;;12.40;99.90;;;;;;4590574;19;20040;-32
2023/01/14 05:11:04;;;;;;;4.73;1.70;;;12.40;99.90;;;;;;4589477;19;20021;-32
2023/01/14 05:12:55;;;;;;;5.17;1.40;;;12.40;99.90;;;;;;4591032;19;20070;-30
2023/01/14 05:14:27;;;;;;;5.90;1.90;;;12.40;99.90;;;;;;4589481;19;20010;-30
2023/01/14 05:16:01;;;;;;;4.78;1.73;;;12.40;99.90;;;;;;4590521;19;20007;-29
2023/01/14 05:17:33;;;;;;;5.03;1.80;;;12.40;99.90;;;;;;4591048;19;20031;-28
2023/01/14 05:19:04;;;;;;;;;;;12.40;99.90;;;;;;4591427;19;20037;-31
2023/01/14 05:20:38;;;;;;;3.70;1.40;;;12.40;99.90;;;;;;4590547;19;19937;-28
2023/01/14 05:22:10;;;;;;;3.93;1.80;;;12.40;99.90;;;;;;4590800;19;20467;-29
2023/01/14 05:23:44;;;;;;;5.90;1.90;;;12.40;99.90;;;;;;4589708;19;20014;-31
2023/01/14 05:25:15;;;;;;;;;;;12.40;99.90;;;;;;4588942;19;21084;-30
2023/01/14 05:26:46;;;;;;;4.77;1.70;;;12.40;99.90;;;;;;4589684;19;19918;-30
2023/01/14 05:28:18;;;;;;;7.70;1.95;;;12.40;99.90;;;;;;4589617;19;20044;-28
2023/01/14 05:29:50;;;;;;;3.17;1.73;;;12.40;99.90;;;;;;4589228;19;20089;-30
2023/01/14 05:31:23;;;;;;;4.97;1.50;;;12.40;99.90;;;;;;4590182;19;20027;-29
2023/01/14 05:32:55;;;;;;;5.90;1.95;;;12.40;99.90;;;;;;4590580;19;20014;-31
2023/01/14 05:34:33;;;;;;;6.57;2.20;;;12.40;99.90;;;;;;4589103;19;20542;-29
2023/01/14 05:36:05;;;;;;;4.20;1.58;;;12.40;99.90;;;;;;4590253;19;20011;-28
2023/01/14 05:37:36;;;;;;;4.97;1.83;;;12.40;99.90;;;;;;4589684;19;20015;-30
2023/01/14 05:39:08;;;;;;;9.03;2.87;;;12.40;99.90;;;;;;4589924;19;20066;-30
2023/01/14 05:40:48;;;;;;;3.83;1.70;;;12.40;99.90;;;;;;4590642;19;20010;-31
2023/01/14 05:46:15;;;;;;;4.50;1.63;;;12.50;99.90;;;;;;4588959;19;20037;-31
2023/01/14 05:47:56;;;;;;;4.43;1.80;;;12.50;99.90;;;;;;4584311;19;20022;-28
2023/01/14 05:49:27;;;;;;;5.55;2.10;;;12.50;99.90;;;;;;4589726;19;20045;-30
2023/01/14 05:50:59;;;;;;;6.45;2.25;;;12.50;99.90;;;;;;4589366;19;20046;-30
2023/01/14 05:52:31;;;;;;;5.70;2.00;;;12.50;99.90;;;;;;4590763;19;20078;-29
2023/01/14 05:54:03;;;;;;;6.70;2.63;;;12.50;99.90;;;;;;4589030;19;20528;-29
2023/01/14 05:55:34;;;;;;;5.72;2.65;;;12.50;99.90;;;;;;4590194;19;20015;-30
2023/01/14 05:57:10;;;;;;;;;;;12.50;99.90;;;;;;4590357;19;20037;-31
2023/01/14 05:58:41;;;;;;;3.60;1.63;;;12.50;99.90;;;;;;4589078;19;19919;-30
2023/01/14 06:06:20;;;;;;;4.68;2.28;;;12.50;99.90;;;;;;4588222;19;20010;-30
2023/01/14 06:07:37;;;;;;;5.32;1.60;;;12.50;99.90;;;;;;4586502;19;20027;-32
2023/01/14 06:09:10;;;;;;;3.60;1.67;;;12.50;99.90;;;;;;4588449;19;20011;-31
2023/01/14 06:10:43;;;;;;;4.30;1.90;;;12.50;99.90;;;;;;4587265;19;20390;-33
2023/01/14 06:12:33;;;;;;;4.30;1.97;;;12.50;99.90;;;;;;4586945;19;20779;-31
2023/01/14 06:14:04;;;;;;;4.53;1.50;;;12.60;99.90;;;;;;4588224;19;20413;-29
2023/01/14 06:15:39;;;;;;;5.38;1.90;;;12.50;99.90;;;;;;4591702;19;20371;-29
2023/01/14 06:17:12;;;;;;;4.87;1.77;;;12.50;99.90;;;;;;4591608;19;20010;-28
2023/01/14 06:18:45;;;;;;;4.80;1.70;;;12.50;99.90;;;;;;4592359;19;20017;-30
2023/01/14 06:20:16;;;;;;;4.53;1.77;;;12.50;99.90;;;;;;4592076;19;20494;-30
2023/01/14 06:21:49;;;;;;;7.23;2.30;;;12.50;99.90;;;;;;4592686;19;20041;-32
2023/01/14 06:23:21;;;;;;;3.97;1.50;;;12.50;99.90;;;;;;4590985;19;20014;-30
2023/01/14 06:24:54;;;;;;;3.30;2.03;;;12.50;99.90;;;;;;4591881;19;20015;-31
2023/01/14 06:26:27;;;;;;;5.88;1.92;;;12.50;99.90;;;;;;4591506;19;20430;-30
2023/01/14 06:28:05;;;;;;;5.87;3.67;;;12.50;99.90;;;;;;4589491;19;20090;-31
2023/01/14 06:29:37;;;;;;;6.50;3.28;;;12.50;99.90;;;;;;4592653;19;20465;-30
2023/01/14 06:31:18;;;;;;;7.57;4.15;;;12.50;99.90;;;;;;4591522;19;20023;-30
2023/01/14 06:32:49;;;;;;;5.23;3.30;;;12.50;99.90;;;;;;4592237;19;20047;-28
2023/01/14 06:34:21;;;;;;;5.82;2.65;;;12.50;99.90;;;;;;4592025;19;20452;-31
2023/01/14 06:35:55;;;;;;;5.37;3.40;;;12.50;99.90;;;;;;4592270;19;20015;-29
2023/01/14 06:37:27;;;;;;;6.17;3.13;;;12.50;99.90;;;;;;4591422;19;20022;-33
2023/01/14 06:38:59;;;;;;;6.13;2.90;;;12.50;99.90;;;;;;4590551;19;20543;-31
2023/01/14 06:40:32;;;;;;;5.57;3.07;;;12.50;99.90;;;;;;4591945;19;20007;-29
2023/01/14 06:42:04;;;;;;;6.83;3.60;;;12.50;99.90;;;;;;4591173;19;20018;-29
2023/01/14 06:43:49;;;;;;;7.53;3.90;;;12.50;99.90;;;;;;4593879;19;20015;-31
2023/01/14 06:45:34;;;;;;;5.57;3.00;;;12.50;99.90;;;;;;4591378;19;20010;-31
2023/01/14 06:47:23;;;;;;;6.60;2.50;;;12.50;99.90;;;;;;4592123;19;20358;-31
2023/01/14 06:49:09;;;;;;;5.70;1.93;;;12.50;99.90;;;;;;4593585;19;20022;-31
2023/01/14 06:50:40;;;;;;;4.50;1.90;;;12.50;99.90;;;;;;4592553;19;20515;-31
2023/01/14 06:52:17;;;;;;;5.37;2.10;;;12.50;99.90;;;;;;4593919;19;20022;-28
2023/01/14 06:53:53;;;;;;;5.87;2.90;;;12.50;99.90;;;;;;4593297;19;20026;-30
2023/01/14 06:55:25;;;;;;;4.47;1.97;;;12.50;99.90;;;;;;4592115;19;20062;-29
2023/01/14 06:57:10;;;;;;;3.90;2.47;;;12.40;99.90;;;;;;4594825;19;20082;-29
2023/01/14 06:58:41;;;;;;;3.45;1.83;;;11.90;99.90;;;;;;4593841;19;20804;-31
2023/01/14 07:00:14;;;;;;;5.43;2.80;;;10.80;99.90;;;;;;4593455;19;20035;-34
2023/01/14 07:01:46;;;;;;;6.17;3.53;;;10.20;99.90;;;;;;4592866;19;20545;-30
2023/01/14 07:03:26;;;;;;;6.47;3.20;;;10.00;99.90;;;;;;4592022;19;20851;-29
2023/01/14 07:05:03;;;;;;;4.63;2.60;;;9.90;99.90;;;;;;4593050;19;20489;-34
2023/01/14 07:06:34;;;;;;;5.57;2.75;;;9.80;99.90;;;;;;4592962;19;20464;-30
2023/01/14 07:08:05;;;;;;;4.65;2.20;;;9.80;99.90;;;;;;4588913;19;20015;-30
2023/01/14 07:09:45;;;;;;;4.90;2.43;;;9.70;99.90;;;;;;4593335;19;20078;-30
2023/01/14 07:11:28;;;;;;;4.53;2.13;;;9.80;99.90;;;;;;4593526;19;20487;-33
2023/01/14 07:13:00;;;;;;;4.60;2.55;;;9.70;99.90;;;;;;4593342;19;20453;-27
2023/01/14 07:14:31;;;;;;;4.15;2.20;;;9.70;99.90;;;;;;4591618;19;20029;-30
2023/01/14 07:16:03;;;;;;;4.25;2.20;;;9.70;99.90;;;;;;4591553;19;20006;-30
2023/01/14 07:17:36;;;;;;;3.77;2.20;;;9.70;99.90;;;;;;4591066;19;20015;-30
2023/01/14 07:19:07;;;;;;;5.10;2.50;;;9.70;99.90;;;;;;4592726;19;20509;-28
2023/01/14 07:20:39;;;;;;;3.92;2.25;;;9.70;99.90;;;;;;4593186;19;20964;-31
2023/01/14 07:22:13;;;;;;;5.17;2.73;;;9.70;99.90;;;;;;4592737;19;20022;-28
2023/01/14 07:23:44;;;;;;;6.35;2.45;;;9.70;99.90;;;;;;4593860;19;20461;-27
2023/01/14 07:25:15;;;;;;;6.65;2.67;;;9.60;99.90;;;;;;4592377;19;20010;-25
2023/01/14 07:27:05;;;;;;;4.70;2.72;;;9.60;99.90;;;;;;4590642;19;20014;-29
2023/01/14 07:28:37;;;;;;;8.23;3.30;;;9.70;99.90;;;;;;4592473;19;20046;-30
2023/01/14 07:30:09;;;;;;;6.00;2.83;;;9.70;99.90;;;;;;4591963;19;20810;-30
2023/01/14 07:31:42;;;;;;;6.40;3.07;;;9.70;99.90;;;;;;4592628;19;20011;-30
2023/01/14 07:33:14;;;;;;;7.22;3.33;;;9.70;99.90;;;;;;4593538;19;20433;-30
2023/01/14 07:34:45;;;;;;;7.20;3.15;;;9.70;99.90;;;;;;4591322;19;20082;-30
2023/01/14 07:36:16;;;;;;;5.85;3.35;;;9.70;99.90;;;;;;4592906;19;20034;-28
2023/01/14 07:37:52;;;;;;;11.57;5.83;;;9.70;99.90;;;;;;4592980;19;20021;-27
2023/01/14 07:39:23;;;;;;;15.10;6.93;;;9.70;99.90;;;;;;4591591;19;20437;-29
2023/01/14 07:40:56;;;;;;;13.30;5.10;;;9.70;99.90;;;;;;4592546;19;20417;-28
2023/01/14 07:42:29;;;;;;;11.17;5.33;;;9.70;99.90;;;;;;4593258;19;20035;-28
2023/01/14 07:44:04;;;;;;;8.65;4.70;;;9.80;99.90;;;;;;4592270;19;20441;-29
2023/01/14 07:45:35;;;;;;;6.67;2.90;;;10.30;99.90;;;;;;4591394;19;20080;-32
2023/01/14 07:47:09;;;;;;;7.32;3.17;;;10.60;99.90;;;;;;4591892;19;20479;-29
2023/01/14 07:48:41;;;;;;;7.50;3.57;;;10.90;99.90;;;;;;4591829;19;20070;-30
2023/01/14 07:50:15;;;;;;;7.83;3.87;;;11.10;99.90;;;;;;4591983;19;20520;-30
2023/01/14 07:51:46;;;;;;;10.13;4.63;;;11.30;99.90;;;;;;4592156;19;20471;-30
2023/01/14 07:53:19;;;;;;;9.10;3.97;;;11.40;99.90;;;;;;4591237;19;20425;-31
2023/01/14 07:54:50;;;;;;;7.30;3.60;;;11.50;99.90;;;;;;4592215;19;20500;-26
2023/01/14 07:56:21;;;;;;;7.90;3.60;;;11.60;99.90;;;;;;4591959;19;20006;-28
2023/01/14 07:57:53;;;;;;;6.93;3.80;;;11.70;99.90;;;;;;4590136;19;20090;-30
2023/01/14 07:59:24;;;;;;;5.20;3.00;;;11.90;99.90;;;;;;4590609;19;20011;-30
2023/01/14 08:00:55;;;;;;;6.90;3.60;;;11.90;99.90;;;;;;4590031;19;20014;-31
2023/01/14 08:02:27;;;;;;;7.03;3.10;;;12.00;99.90;;;;;;4592771;19;20109;-32
2023/01/14 08:03:59;;;;;;;;;;;12.10;99.90;;;;;;4585570;19;20011;-30
2023/01/14 08:05:30;;;;;;;5.63;2.67;;;12.10;99.90;;;;;;4591755;19;19962;-28
2023/01/14 08:07:04;;;;;;;;;;;12.10;99.90;;;;;;4592433;19;20041;-29
2023/01/14 08:08:35;;;;;;;4.77;2.17;;;12.10;99.90;;;;;;4591484;19;20240;-29
2023/01/14 08:10:07;;;;;;;4.03;2.00;;;11.40;99.90;;;;;;4590762;19;20457;-32
2023/01/14 08:11:40;;;;;;;3.57;1.90;;;10.70;99.90;;;;;;4591302;19;20034;-26
2023/01/14 08:13:13;;;;;;;2.50;1.90;;;10.30;99.90;;;;;;4591150;19;20437;-25
2023/01/14 08:14:45;;;;;;;5.53;2.70;;;10.10;99.90;;;;;;4592014;19;20482;-29
2023/01/14 08:16:16;;;;;;;5.45;2.50;;;10.00;99.90;;;;;;4590470;19;20405;-28
2023/01/14 08:17:47;;;;;;;7.85;3.55;;;10.00;99.90;;;;;;4587223;19;20018;-34
2023/01/14 08:19:19;;;;;;;4.43;2.00;;;9.90;99.90;;;;;;4590596;19;20030;-28
2023/01/14 08:21:03;;;;;;;4.35;2.38;;;9.90;99.90;;;;;;4592026;19;20453;-28
2023/01/14 08:22:35;;;;;;;3.53;2.03;;;9.90;99.90;;;;;;4591435;19;20070;-30
2023/01/14 08:24:08;;;;;;;4.90;2.70;;;9.90;99.90;;;;;;4592345;19;20425;-26
2023/01/14 08:25:40;;;;;;;4.70;2.50;;;9.90;99.90;;;;;;4591578;19;20437;-30
2023/01/14 08:27:13;;;;;;;4.23;2.27;;;9.90;99.90;;;;;;4591582;19;20032;-30
2023/01/14 08:28:45;;;;;;;5.33;2.60;;;9.90;99.90;;;;;;4591674;19;20879;-31
2023/01/14 08:30:16;;;;;;;4.90;2.42;;;9.90;99.90;;;;;;4590954;19;20464;-33
2023/01/14 08:31:54;;;;;;;6.32;2.95;;;9.90;99.90;;;;;;4591141;19;20013;-30
2023/01/14 08:33:26;;;;;;;9.30;5.23;;;9.90;99.90;;;;;;4591795;19;20011;-27
2023/01/14 08:34:58;;;;;;;7.65;4.07;;;9.90;99.90;;;;;;4591775;19;20429;-30
2023/01/14 08:36:30;;;;;;;6.33;3.53;;;9.90;99.90;;;;;;4591290;19;20022;-28
2023/01/14 08:38:02;;;;;;;5.82;3.67;;;9.90;99.90;;;;;;4591337;19;20421;-26
2023/01/14 08:39:34;;;;;;;6.27;3.47;;;9.90;99.90;;;;;;4591102;19;20437;-27
2023/01/14 08:41:09;;;;;;;5.50;3.17;;;9.90;99.90;;;;;;4591945;19;20432;-29
2023/01/14 08:42:41;;;;;;;6.23;3.43;;;9.90;99.90;;;;;;4591084;19;20014;-26
2023/01/14 08:44:15;;;;;;;5.77;2.97;;;10.00;99.90;;;;;;4591297;19;21040;-30
2023/01/14 08:45:46;;;;;;;;;;;10.00;99.90;;;;;;4592331;19;20476;-28
2023/01/14 08:47:18;;;;;;;4.50;2.30;;;10.00;99.90;;;;;;4591588;19;19917;-27
2023/01/14 08:48:49;;;;;;;;;;;10.00;99.90;;;;;;4592116;19;20479;-28
2023/01/14 08:50:21;;;;;;;5.50;3.13;;;10.00;99.90;;;;;;4591377;19;19914;-29
2023/01/14 08:51:55;;;;;;;8.52;5.00;;;10.00;99.90;;;;;;4591681;19;20455;-28
2023/01/14 08:53:30;;;;;;;6.27;4.00;;;10.00;99.90;;;;;;4590502;19;20098;-26
2023/01/14 08:55:02;;;;;;;7.20;3.80;;;10.10;99.90;;;;;;4590824;19;20421;-27
2023/01/14 08:56:33;;;;;;;;;;;10.10;99.90;;;;;;4589708;19;20436;-27
2023/01/14 08:58:06;;;;;;;7.07;3.42;;;10.10;99.90;;;;;;4591294;19;19922;-26
2023/01/14 08:59:38;;;;;;;7.30;3.50;;;10.10;99.90;;;;;;4591057;19;20077;-30
2023/01/14 09:01:10;;;;;;;6.38;3.85;;;10.10;99.90;;;;;;4591004;19;20429;-28
2023/01/14 09:02:41;;;;;;;7.20;3.72;;;10.10;99.90;;;;;;4591347;19;20018;-29
2023/01/14 09:04:14;;;;;;;7.00;3.80;;;10.00;99.90;;;;;;4588606;19;20006;-31
2023/01/14 09:05:46;;;;;;;5.97;3.10;;;10.40;99.90;;;;;;4589285;19;21087;-30
2023/01/14 09:18:21;;;;;;;5.80;2.67;;;12.00;99.90;;;;;;4589544;19;20417;-28
2023/01/14 09:19:55;;;;;;;7.27;2.93;;;12.00;99.90;;;;;;4588265;19;20445;-30
2023/01/14 09:21:26;;;;;;;6.87;3.37;;;12.00;99.90;;;;;;4589422;19;20838;-31
2023/01/14 09:22:58;;;;;;;;;;;12.10;99.90;;;;;;4590094;19;20549;-28
2023/01/14 09:24:29;;;;;;;6.40;2.70;;;12.10;99.90;;;;;;4590625;19;19918;-29
2023/01/14 09:26:01;;;;;;;6.03;3.50;;;12.10;99.90;;;;;;4589151;19;20876;-29
2023/01/14 09:27:34;;;;;;;5.40;2.70;;;12.20;99.90;;;;;;4589861;19;20039;-30
2023/01/14 09:29:05;;;;;;;3.80;2.38;;;12.20;99.90;;;;;;4590757;19;20018;-29
2023/01/14 09:30:38;;;;;;;9.23;4.77;;;12.20;99.90;;;;;;4590631;19;20003;-30
2023/01/14 09:32:11;;;;;;;9.23;5.73;;;12.30;99.90;;;;;;4589238;19;20495;-31
2023/01/14 09:33:43;;;;;;;6.90;4.07;;;12.30;99.90;;;;;;4589192;19;20511;-33
2023/01/14 09:35:17;;;;;;;8.87;3.87;;;12.30;99.90;;;;;;4590256;19;20024;-31
2023/01/14 09:36:49;;;;;;;;;;;12.30;99.90;;;;;;4591066;19;20433;-30
2023/01/14 09:38:22;;;;;;;9.93;4.37;;;12.20;99.90;;;;;;4590352;19;19914;-30
2023/01/14 09:39:53;;;;;;;10.07;4.35;;;12.10;99.90;;;;;;4590610;19;20029;-31
2023/01/14 09:41:35;;;;;;;7.88;4.05;;;12.20;99.90;;;;;;4590573;19;20018;-30
2023/01/14 09:43:16;;;;;;;8.60;3.83;;;12.20;99.90;;;;;;4589053;19;20007;-28
2023/01/14 09:44:51;;;;;;;8.77;4.57;;;12.20;99.90;;;;;;4589103;19;20038;-31
2023/01/14 09:46:25;;;;;;;9.17;3.90;;;12.30;99.90;;;;;;4588947;19;20096;-32
2023/01/14 09:48:11;;;;;;;10.27;4.37;;;12.40;99.90;;;;;;4589471;19;20481;-29
2023/01/14 09:49:44;;;;;;;13.70;6.77;;;12.40;99.90;;;;;;4589361;19;20014;-29
2023/01/14 09:51:28;;;;;;;8.20;3.45;;;12.50;99.90;;;;;;4588958;19;20015;-32
2023/01/14 09:53:22;;;;;;;7.57;3.30;;;12.60;99.90;;;;;;4588880;19;20026;-30
2023/01/14 09:54:56;;;;;;;9.83;4.53;;;12.60;99.90;;;;;;4590395;19;20019;-32
2023/01/14 09:56:30;;;;;;;5.90;3.63;;;12.50;99.90;;;;;;4589926;19;20095;-28
2023/01/14 09:58:12;;;;;;;9.73;3.07;;;12.50;99.90;;;;;;4590404;19;20034;-31
2023/01/14 10:00:30;;;;;;;5.93;3.07;;;12.40;99.90;;;;;;4588817;19;20014;-31
2023/01/14 10:02:11;;;;;;;7.83;3.57;;;12.40;99.90;;;;;;4587546;19;20025;-31
2023/01/14 10:03:54;;;;;;;7.67;3.10;;;12.40;99.90;;;;;;4587568;19;20073;-35
2023/01/14 10:05:30;;;;;;;6.63;3.80;;;12.40;99.90;;;;;;4586528;19;20014;-31
2023/01/14 10:07:02;;;;;;;15.30;9.00;;;12.40;99.90;;;;;;4587662;19;20550;-30
2023/01/14 10:08:40;;;;;;;17.60;10.07;;;12.30;99.90;;;;;;4586703;19;20006;-29
2023/01/14 10:10:23;;;;;;;14.07;6.90;;;12.40;99.90;;;;;;4587409;19;20410;-31
2023/01/14 10:11:56;;;;;;;10.90;4.70;;;12.40;99.90;;;;;;4587740;19;20611;-28
2023/01/14 10:13:36;;;;;;;7.60;4.03;;;12.40;99.90;;;;;;4587200;19;20014;-28
2023/01/14 10:15:18;;;;;;;9.17;3.93;;;12.40;99.90;;;;;;4587815;19;19998;-31
2023/01/14 10:16:54;;;;;;;7.73;4.10;;;12.40;99.90;;;;;;4587347;19;20397;-33
2023/01/14 10:18:49;;;;;;;7.57;3.50;;;12.40;99.90;;;;;;4587345;19;20011;-35
2023/01/14 10:20:36;;;;;;;7.57;4.53;;;12.40;99.90;;;;;;4587510;19;20030;-32
2023/01/14 10:22:19;;;;;;;10.67;8.20;;;12.40;99.90;;;;;;4587766;19;20363;-31
2023/01/14 10:23:52;;;;;;;9.60;6.10;;;12.40;99.90;;;;;;4587910;19;20017;-30
2023/01/14 10:25:24;;;;;;;8.77;5.10;;;12.40;99.90;;;;;;4587274;19;20497;-30
2023/01/14 10:26:56;;;;;;;7.60;4.20;;;12.40;99.90;;;;;;4587402;19;20014;-29
2023/01/14 10:28:28;;;;;;;8.17;3.30;;;12.40;99.90;;;;;;4586137;19;20014;-31
2023/01/14 10:30:33;;;;;;;7.57;3.03;;;12.40;99.90;;;;;;4587524;19;20015;-31
2023/01/14 10:32:05;;;;;;;8.23;4.23;;;12.40;99.90;;;;;;4587016;19;20465;-32
2023/01/14 10:33:36;;;;;;;10.40;4.60;;;12.30;99.90;;;;;;4587695;19;20014;-31
2023/01/14 10:35:11;;;;;;;6.77;3.70;;;12.40;99.90;;;;;;4587044;19;20121;-35
2023/01/14 10:36:43;;;;;;;8.10;3.67;;;12.40;99.90;;;;;;4587272;19;20017;-30
2023/01/14 10:38:20;;;;;;;7.80;2.90;;;12.40;99.90;;;;;;4587642;19;20014;-31
2023/01/14 10:39:52;;;;;;;8.37;3.73;;;12.40;99.90;;;;;;4588304;19;20033;-32
2023/01/14 10:43:25;;;;;;;6.77;2.67;;;12.30;99.90;;;;;;4588159;19;20010;-31
2023/01/14 10:44:56;;;;;;;5.30;2.53;;;12.40;99.90;;;;;;4589090;19;20467;-29
2023/01/14 10:46:29;;;;;;;9.73;3.80;;;12.40;99.90;;;;;;4588077;19;20469;-31
2023/01/14 10:48:02;;;;;;;9.85;4.78;;;12.40;99.90;;;;;;4587734;19;20038;-35
2023/01/14 10:49:50;;;;;;;13.20;6.53;;;12.40;99.90;;;;;;4587876;19;20022;-30
2023/01/14 10:51:36;;;;;;;10.67;5.47;;;12.40;99.90;;;;;;4588062;19;20074;-31
2023/01/14 10:53:14;;;;;;;7.33;4.07;;;12.40;99.90;;;;;;4588799;19;20018;-30
2023/01/14 10:55:11;;;;;;;20.30;12.80;;;12.40;99.90;;;;;;4589849;19;20452;-30
2023/01/14 10:57:15;;;;;;;16.37;8.57;;;12.40;99.90;;;;;;4589181;19;20413;-30
2023/01/14 10:58:49;;;;;;;14.70;8.43;;;12.40;99.90;;;;;;4586746;19;20007;-30
2023/01/14 11:00:23;;;;;;;;;;;12.40;99.90;;;;;;4587784;19;20002;-28
2023/01/14 11:01:55;;;;;;;9.33;4.87;;;12.50;99.90;;;;;;4587950;19;19915;-30
2023/01/14 11:03:26;;;;;;;;;;;12.50;99.90;;;;;;4592309;19;20019;-29
2023/01/14 11:04:59;;;;;;;9.60;4.95;;;12.40;99.90;;;;;;4591160;19;19919;-31
2023/01/14 11:06:32;;;;;;;7.82;3.35;;;12.50;99.90;;;;;;4591138;19;20018;-29
2023/01/14 11:08:28;;;;;;;9.73;3.50;;;12.40;99.90;;;;;;4589831;19;20015;-29
2023/01/14 11:10:16;;;;;;;7.03;3.37;;;12.40;99.90;;;;;;4590886;19;20466;-29
2023/01/14 11:11:52;;;;;;;9.27;3.60;;;12.40;99.90;;;;;;4591638;19;20087;-31
2023/01/14 11:13:27;;;;;;;5.97;3.17;;;12.40;99.90;;;;;;4591393;19;20522;-31
2023/01/14 11:14:59;;;;;;;7.97;3.47;;;12.50;99.90;;;;;;4591562;19;20764;-34
2023/01/14 11:16:34;;;;;;;7.00;3.90;;;12.50;99.90;;;;;;4590997;19;20010;-29
2023/01/14 11:18:29;;;;;;;6.50;3.63;;;12.50;99.90;;;;;;4590731;19;20014;-31
2023/01/14 11:20:23;;;;;;;8.00;3.70;;;12.50;99.90;;;;;;4589495;19;20026;-31
2023/01/14 11:21:58;;;;;;;7.53;3.23;;;12.50;99.90;;;;;;4591207;19;20019;-31
2023/01/14 11:23:34;;;;;;;5.93;2.80;;;12.50;99.90;;;;;;4591093;19;20060;-31
2023/01/14 11:25:22;;;;;;;8.37;2.90;;;12.50;99.90;;;;;;4591012;19;20006;-31
2023/01/14 11:27:14;;;;;;;6.80;3.27;;;12.50;99.90;;;;;;4590563;19;20066;-32